sensor_id;sensor_type;location;lat;lon;timestamp;pressure;altitude;pressure_sealevel;temperature;humidity
69630;BME280;56857;52.212;5.496;2022-12-11T00:02:11;101203.09;;;0.17;100.00
69630;BME280;56857;52.212;5.496;2022-12-11T00:04:37;101207.34;;;0.18;100.00
69630;BME280;56857;52.212;5.496;2022-12-11T00:07:06;101197.88;;;0.17;100.00
69630;BME280;56857;52.212;5.496;2022-12-11T00:09:34;101199.47;;;0.20;100.00
69630;BME280;56857;52.212;5.496;2022-12-11T00:12:00;101196.75;;;0.21;100.00
69630;BME280;56857;52.212;5.496;2022-12-11T00:14:25;101196.75;;;0.21;100.00
69630;BME280;56857;52.212;5.496;2022-12-11T00:16:50;101195.84;;;0.22;100.00
69630;BME280;56857;52.212;5.496;2022-12-11T00:19:16;101190.63;;;0.22;100.00
69630;BME280;56857;52.212;5.496;2022-12-11T00:21:41;101182.03;;;0.20;100.00
69630;BME280;56857;52.212;5.496;2022-12-11T00:24:07;101193.94;;;0.25;100.00
69630;BME280;56857;52.212;5.496;2022-12-11T00:26:32;101187.81;;;0.26;100.00
69630;BME280;56857;52.212;5.496;2022-12-11T00:28:57;101180.72;;;0.28;100.00
69630;BME280;56857;52.212;5.496;2022-12-11T00:31:23;101185.03;;;0.29;100.00
69630;BME280;56857;52.212;5.496;2022-12-11T00:33:48;101190.06;;;0.32;100.00
69630;BME280;56857;52.212;5.496;2022-12-11T00:36:17;101186.41;;;0.34;100.00
69630;BME280;56857;52.212;5.496;2022-12-11T00:38:43;101195.16;;;0.33;100.00
69630;BME280;56857;52.212;5.496;2022-12-11T00:41:08;101188.09;;;0.35;100.00
69630;BME280;56857;52.212;5.496;2022-12-11T00:43:34;101189.66;;;0.38;100.00
69630;BME280;56857;52.212;5.496;2022-12-11T00:45:59;101190.31;;;0.41;100.00
69630;BME280;56857;52.212;5.496;2022-12-11T00:48:25;101192.75;;;0.44;100.00
69630;BME280;56857;52.212;5.496;2022-12-11T00:50:50;101199.50;;;0.47;100.00
69630;BME280;56857;52.212;5.496;2022-12-11T00:53:15;101194.09;;;0.50;100.00
69630;BME280;56857;52.212;5.496;2022-12-11T00:55:41;101193.28;;;0.50;100.00
69630;BME280;56857;52.212;5.496;2022-12-11T00:58:07;101191.69;;;0.47;100.00
69630;BME280;56857;52.212;5.496;2022-12-11T01:00:33;101187.34;;;0.48;100.00
69630;BME280;56857;52.212;5.496;2022-12-11T01:02:58;101184.63;;;0.49;100.00
69630;BME280;56857;52.212;5.496;2022-12-11T01:05:24;101179.41;;;0.49;100.00
69630;BME280;56857;52.212;5.496;2022-12-11T01:07:49;101179.31;;;0.51;100.00
69630;BME280;56857;52.212;5.496;2022-12-11T01:10:15;101182.84;;;0.50;100.00
69630;BME280;56857;52.212;5.496;2022-12-11T01:12:41;101172.59;;;0.46;100.00
69630;BME280;56857;52.212;5.496;2022-12-11T01:15:06;101176.03;;;0.47;100.00
69630;BME280;56857;52.212;5.496;2022-12-11T01:17:32;101180.16;;;0.51;100.00
69630;BME280;56857;52.212;5.496;2022-12-11T01:19:57;101174.00;;;0.52;100.00
69630;BME280;56857;52.212;5.496;2022-12-11T01:22:22;101182.44;;;0.56;100.00
69630;BME280;56857;52.212;5.496;2022-12-11T01:24:47;101174.53;;;0.57;100.00
69630;BME280;56857;52.212;5.496;2022-12-11T01:27:13;101180.41;;;0.61;100.00
69630;BME280;56857;52.212;5.496;2022-12-11T01:29:38;101183.72;;;0.63;100.00
69630;BME280;56857;52.212;5.496;2022-12-11T01:32:04;101178.44;;;0.64;100.00
69630;BME280;56857;52.212;5.496;2022-12-11T01:34:29;101178.31;;;0.66;100.00
69630;BME280;56857;52.212;5.496;2022-12-11T01:36:55;101180.09;;;0.65;100.00
69630;BME280;56857;52.212;5.496;2022-12-11T01:39:20;101177.41;;;0.67;100.00
69630;BME280;56857;52.212;5.496;2022-12-11T01:41:46;101180.28;;;0.62;100.00
69630;BME280;56857;52.212;5.496;2022-12-11T01:46:40;101177.16;;;0.57;100.00
69630;BME280;56857;52.212;5.496;2022-12-11T01:49:11;101173.69;;;0.57;100.00
69630;BME280;56857;52.212;5.496;2022-12-11T01:51:58;101178.91;;;0.57;100.00
69630;BME280;56857;52.212;5.496;2022-12-11T01:54:26;101171.28;;;0.54;100.00
69630;BME280;56857;52.212;5.496;2022-12-11T01:56:55;101176.50;;;0.54;100.00
69630;BME280;56857;52.212;5.496;2022-12-11T01:59:23;101176.50;;;0.54;100.00
69630;BME280;56857;52.212;5.496;2022-12-11T02:02:05;101173.16;;;0.52;100.00
69630;BME280;56857;52.212;5.496;2022-12-11T02:04:35;101174.81;;;0.53;100.00
69630;BME280;56857;52.212;5.496;2022-12-11T02:07:01;101167.81;;;0.53;100.00
69630;BME280;56857;52.212;5.496;2022-12-11T02:09:30;101165.41;;;0.50;100.00
69630;BME280;56857;52.212;5.496;2022-12-11T02:17:37;101164.19;;;0.56;100.00
69630;BME280;56857;52.212;5.496;2022-12-11T02:20:21;101163.34;;;0.55;100.00
69630;BME280;56857;52.212;5.496;2022-12-11T02:25:24;101155.41;;;0.57;100.00
69630;BME280;56857;52.212;5.496;2022-12-11T02:30:40;101152.63;;;0.60;100.00
69630;BME280;56857;52.212;5.496;2022-12-11T02:33:10;101155.16;;;0.61;100.00
69630;BME280;56857;52.212;5.496;2022-12-11T02:35:41;101161.00;;;0.65;100.00
69630;BME280;56857;52.212;5.496;2022-12-11T02:38:25;101152.97;;;0.68;100.00
69630;BME280;56857;52.212;5.496;2022-12-11T02:40:52;101152.78;;;0.71;100.00
69630;BME280;56857;52.212;5.496;2022-12-11T02:43:19;101155.41;;;0.71;100.00
69630;BME280;56857;52.212;5.496;2022-12-11T02:45:47;101151.84;;;0.72;100.00
69630;BME280;56857;52.212;5.496;2022-12-11T02:48:15;101149.97;;;0.74;100.00
69630;BME280;56857;52.212;5.496;2022-12-11T02:50:45;101156.66;;;0.78;100.00
69630;BME280;56857;52.212;5.496;2022-12-11T02:53:12;101145.41;;;0.78;100.00
69630;BME280;56857;52.212;5.496;2022-12-11T02:55:42;101153.16;;;0.79;100.00
69630;BME280;56857;52.212;5.496;2022-12-11T02:58:21;101146.16;;;0.80;100.00
69630;BME280;56857;52.212;5.496;2022-12-11T03:00:48;101149.59;;;0.80;100.00
69630;BME280;56857;52.212;5.496;2022-12-11T03:03:14;101141.84;;;0.79;100.00
69630;BME280;56857;52.212;5.496;2022-12-11T03:05:41;101148.66;;;0.81;100.00
69630;BME280;56857;52.212;5.496;2022-12-11T03:08:06;101146.03;;;0.81;100.00
69630;BME280;56857;52.212;5.496;2022-12-11T03:10:32;101147.72;;;0.82;100.00
69630;BME280;56857;52.212;5.496;2022-12-11T03:12:59;101142.78;;;0.78;100.00
69630;BME280;56857;52.212;5.496;2022-12-11T03:15:35;101146.22;;;0.78;100.00
69630;BME280;56857;52.212;5.496;2022-12-11T03:18:14;101143.75;;;0.77;100.00
69630;BME280;56857;52.212;5.496;2022-12-11T03:21:01;101142.72;;;0.79;100.00
69630;BME280;56857;52.212;5.496;2022-12-11T03:24:04;101148.66;;;0.81;100.00
69630;BME280;56857;52.212;5.496;2022-12-11T03:26:36;101148.84;;;0.78;100.00
69630;BME280;56857;52.212;5.496;2022-12-11T03:29:12;101148.00;;;0.78;100.00
69630;BME280;56857;52.212;5.496;2022-12-11T03:31:50;101140.09;;;0.79;100.00
69630;BME280;56857;52.212;5.496;2022-12-11T03:34:26;101140.72;;;0.83;100.00
69630;BME280;56857;52.212;5.496;2022-12-11T03:36:54;101139.69;;;0.85;100.00
69630;BME280;56857;52.212;5.496;2022-12-11T03:39:33;101141.38;;;0.86;100.00
69630;BME280;56857;52.212;5.496;2022-12-11T03:42:02;101139.50;;;0.88;100.00
69630;BME280;56857;52.212;5.496;2022-12-11T03:44:31;101144.63;;;0.90;100.00
69630;BME280;56857;52.212;5.496;2022-12-11T03:47:00;101144.72;;;0.88;100.00
69630;BME280;56857;52.212;5.496;2022-12-11T03:49:32;101147.22;;;0.90;100.00
69630;BME280;56857;52.212;5.496;2022-12-11T03:51:59;101148.25;;;0.87;100.00
69630;BME280;56857;52.212;5.496;2022-12-11T03:54:27;101142.13;;;0.88;100.00
69630;BME280;56857;52.212;5.496;2022-12-11T03:56:56;101136.78;;;0.90;100.00
69630;BME280;56857;52.212;5.496;2022-12-11T03:59:23;101134.91;;;0.92;100.00
69630;BME280;56857;52.212;5.496;2022-12-11T04:01:49;101139.94;;;0.95;100.00
69630;BME280;56857;52.212;5.496;2022-12-11T04:04:14;101132.00;;;0.97;100.00
69630;BME280;56857;52.212;5.496;2022-12-11T04:06:40;101127.59;;;0.97;100.00
69630;BME280;56857;52.212;5.496;2022-12-11T04:09:06;101126.78;;;0.97;100.00
69630;BME280;56857;52.212;5.496;2022-12-11T04:11:31;101122.50;;;0.96;100.00
69630;BME280;56857;52.212;5.496;2022-12-11T04:13:57;101123.41;;;0.95;100.00
69630;BME280;56857;52.212;5.496;2022-12-11T04:16:22;101121.56;;;0.97;100.00
69630;BME280;56857;52.212;5.496;2022-12-11T04:18:47;101125.13;;;0.96;100.00
69630;BME280;56857;52.212;5.496;2022-12-11T04:21:14;101125.13;;;0.96;100.00
69630;BME280;56857;52.212;5.496;2022-12-11T04:23:39;101127.59;;;0.97;100.00
69630;BME280;56857;52.212;5.496;2022-12-11T04:26:11;101124.09;;;0.98;100.00
69630;BME280;56857;52.212;5.496;2022-12-11T04:28:39;101118.66;;;1.01;100.00
69630;BME280;56857;52.212;5.496;2022-12-11T04:31:05;101121.16;;;1.03;100.00
69630;BME280;56857;52.212;5.496;2022-12-11T04:33:34;101126.38;;;1.03;100.00
69630;BME280;56857;52.212;5.496;2022-12-11T04:36:00;101124.72;;;1.02;100.00
69630;BME280;56857;52.212;5.496;2022-12-11T04:38:25;101119.69;;;0.99;100.00
69630;BME280;56857;52.212;5.496;2022-12-11T04:41:03;101110.47;;;0.93;100.00
69630;BME280;56857;52.212;5.496;2022-12-11T04:43:29;101115.59;;;0.95;100.00
69630;BME280;56857;52.212;5.496;2022-12-11T04:48:31;101118.19;;;0.95;100.00
69630;BME280;56857;52.212;5.496;2022-12-11T04:50:56;101118.94;;;0.97;100.00
69630;BME280;56857;52.212;5.496;2022-12-11T04:53:22;101114.47;;;0.99;100.00
69630;BME280;56857;52.212;5.496;2022-12-11T04:55:48;101109.13;;;1.00;100.00
69630;BME280;56857;52.212;5.496;2022-12-11T04:58:13;101107.34;;;1.01;100.00
69630;BME280;56857;52.212;5.496;2022-12-11T05:00:39;101101.94;;;1.04;100.00
69630;BME280;56857;52.212;5.496;2022-12-11T05:03:04;101098.50;;;1.03;100.00
69630;BME280;56857;52.212;5.496;2022-12-11T05:05:29;101096.81;;;1.02;100.00
69630;BME280;56857;52.212;5.496;2022-12-11T05:07:55;101097.84;;;1.00;100.00
69630;BME280;56857;52.212;5.496;2022-12-11T05:10:20;101102.44;;;0.96;100.00
69630;BME280;56857;52.212;5.496;2022-12-11T05:12:46;101106.91;;;0.94;100.00
69630;BME280;56857;52.212;5.496;2022-12-11T05:15:12;101102.84;;;0.90;100.00
69630;BME280;56857;52.212;5.496;2022-12-11T05:17:37;101105.47;;;0.90;100.00
69630;BME280;56857;52.212;5.496;2022-12-11T05:20:03;101110.78;;;0.88;100.00
69630;BME280;56857;52.212;5.496;2022-12-11T05:22:28;101110.78;;;0.88;100.00
69630;BME280;56857;52.212;5.496;2022-12-11T05:24:54;101115.06;;;0.89;100.00
69630;BME280;56857;52.212;5.496;2022-12-11T05:27:19;101121.31;;;0.87;100.00
69630;BME280;56857;52.212;5.496;2022-12-11T05:29:44;101118.72;;;0.87;100.00
69630;BME280;56857;52.212;5.496;2022-12-11T05:32:10;101110.88;;;0.87;100.00
69630;BME280;56857;52.212;5.496;2022-12-11T05:34:35;101111.81;;;0.86;100.00
69630;BME280;56857;52.212;5.496;2022-12-11T05:37:01;101100.63;;;0.84;100.00
69630;BME280;56857;52.212;5.496;2022-12-11T05:39:26;101099.81;;;0.83;100.00
69630;BME280;56857;52.212;5.496;2022-12-11T05:41:51;101104.41;;;0.80;100.00
69630;BME280;56857;52.212;5.496;2022-12-11T05:44:16;101097.47;;;0.79;100.00
69630;BME280;56857;52.212;5.496;2022-12-11T05:46:42;101104.59;;;0.77;100.00
69630;BME280;56857;52.212;5.496;2022-12-11T05:49:08;101097.69;;;0.76;100.00
69630;BME280;56857;52.212;5.496;2022-12-11T05:51:34;101104.59;;;0.77;100.00
69630;BME280;56857;52.212;5.496;2022-12-11T05:53:59;101095.00;;;0.77;100.00
69630;BME280;56857;52.212;5.496;2022-12-11T05:56:27;101100.97;;;0.79;100.00
69630;BME280;56857;52.212;5.496;2022-12-11T05:58:54;101099.25;;;0.78;100.00
69630;BME280;56857;52.212;5.496;2022-12-11T06:01:33;101102.81;;;0.77;100.00
69630;BME280;56857;52.212;5.496;2022-12-11T06:03:59;101090.72;;;0.76;100.00
69630;BME280;56857;52.212;5.496;2022-12-11T06:06:25;101093.31;;;0.76;100.00
69630;BME280;56857;52.212;5.496;2022-12-11T06:08:51;101093.97;;;0.80;100.00
69630;BME280;56857;52.212;5.496;2022-12-11T06:11:16;101089.56;;;0.80;100.00
69630;BME280;56857;52.212;5.496;2022-12-11T06:13:42;101090.31;;;0.82;100.00
69630;BME280;56857;52.212;5.496;2022-12-11T06:16:08;101085.09;;;0.82;100.00
69630;BME280;56857;52.212;5.496;2022-12-11T06:18:38;101085.81;;;0.84;100.00
69630;BME280;56857;52.212;5.496;2022-12-11T06:21:15;101083.19;;;0.84;100.00
69630;BME280;56857;52.212;5.496;2022-12-11T06:23:41;101084.16;;;0.83;100.00
69630;BME280;56857;52.212;5.496;2022-12-11T06:26:09;101082.69;;;0.79;100.00
69630;BME280;56857;52.212;5.496;2022-12-11T06:28:35;101081.81;;;0.79;100.00
69630;BME280;56857;52.212;5.496;2022-12-11T06:31:00;101086.22;;;0.78;100.00
69630;BME280;56857;52.212;5.496;2022-12-11T06:33:26;101090.53;;;0.79;100.00
69630;BME280;56857;52.212;5.496;2022-12-11T06:35:52;101084.25;;;0.82;100.00
69630;BME280;56857;52.212;5.496;2022-12-11T06:38:17;101084.97;;;0.84;100.00
69630;BME280;56857;52.212;5.496;2022-12-11T06:40:43;101092.06;;;0.82;100.00
69630;BME280;56857;52.212;5.496;2022-12-11T06:43:08;101086.13;;;0.80;100.00
69630;BME280;56857;52.212;5.496;2022-12-11T06:45:35;101085.38;;;0.78;100.00
69630;BME280;56857;52.212;5.496;2022-12-11T06:48:01;101086.41;;;0.75;100.00
69630;BME280;56857;52.212;5.496;2022-12-11T06:50:26;101089.13;;;0.74;100.00
69630;BME280;56857;52.212;5.496;2022-12-11T06:52:52;101094.44;;;0.72;100.00
69630;BME280;56857;52.212;5.496;2022-12-11T06:55:17;101099.66;;;0.72;100.00
69630;BME280;56857;52.212;5.496;2022-12-11T06:57:42;101108.53;;;0.69;100.00
69630;BME280;56857;52.212;5.496;2022-12-11T07:00:08;101112.91;;;0.69;100.00
69630;BME280;56857;52.212;5.496;2022-12-11T07:02:33;101101.84;;;0.65;100.00
69630;BME280;56857;52.212;5.496;2022-12-11T07:05:00;101105.47;;;0.63;100.00
69630;BME280;56857;52.212;5.496;2022-12-11T07:07:25;101109.84;;;0.62;100.00
69630;BME280;56857;52.212;5.496;2022-12-11T07:09:51;101108.06;;;0.63;100.00
69630;BME280;56857;52.212;5.496;2022-12-11T07:12:16;101101.13;;;0.63;100.00
69630;BME280;56857;52.212;5.496;2022-12-11T07:14:42;101105.38;;;0.64;100.00
69630;BME280;56857;52.212;5.496;2022-12-11T07:17:07;101112.19;;;0.67;100.00
69630;BME280;56857;52.212;5.496;2022-12-11T07:19:32;101118.97;;;0.69;100.00
69630;BME280;56857;52.212;5.496;2022-12-11T07:21:58;101110.28;;;0.69;100.00
69630;BME280;56857;52.212;5.496;2022-12-11T07:24:23;101114.78;;;0.67;100.00
69630;BME280;56857;52.212;5.496;2022-12-11T07:26:49;101121.88;;;0.65;100.00
69630;BME280;56857;52.212;5.496;2022-12-11T07:29:14;101120.22;;;0.64;100.00
69630;BME280;56857;52.212;5.496;2022-12-11T07:31:39;101122.91;;;0.62;100.00
69630;BME280;56857;52.212;5.496;2022-12-11T07:34:05;101118.63;;;0.61;100.00
69630;BME280;56857;52.212;5.496;2022-12-11T07:36:32;101118.63;;;0.61;100.00
69630;BME280;56857;52.212;5.496;2022-12-11T07:38:58;101120.41;;;0.61;100.00
69630;BME280;56857;52.212;5.496;2022-12-11T07:41:24;101112.47;;;0.62;100.00
69630;BME280;56857;52.212;5.496;2022-12-11T07:43:50;101120.22;;;0.64;100.00
69630;BME280;56857;52.212;5.496;2022-12-11T07:46:22;101122.91;;;0.62;100.00
69630;BME280;56857;52.212;5.496;2022-12-11T07:48:48;101123.72;;;0.63;100.00
69630;BME280;56857;52.212;5.496;2022-12-11T07:51:25;101136.06;;;0.61;100.00
69630;BME280;56857;52.212;5.496;2022-12-11T07:53:51;101122.38;;;0.57;100.00
69630;BME280;56857;52.212;5.496;2022-12-11T07:56:20;101132.69;;;0.59;100.00
69630;BME280;56857;52.212;5.496;2022-12-11T07:58:46;101125.19;;;0.54;100.00
69630;BME280;56857;52.212;5.496;2022-12-11T08:01:12;101120.88;;;0.53;100.00
69630;BME280;56857;52.212;5.496;2022-12-11T08:03:38;101128.81;;;0.52;100.00
69630;BME280;56857;52.212;5.496;2022-12-11T08:06:04;101121.00;;;0.52;100.00
69630;BME280;56857;52.212;5.496;2022-12-11T08:08:30;101127.66;;;0.56;100.00
69630;BME280;56857;52.212;5.496;2022-12-11T08:10:55;101130.28;;;0.56;100.00
69630;BME280;56857;52.212;5.496;2022-12-11T08:13:20;101130.00;;;0.60;100.00
69630;BME280;56857;52.212;5.496;2022-12-11T08:15:46;101131.66;;;0.61;100.00
69630;BME280;56857;52.212;5.496;2022-12-11T08:18:11;101126.34;;;0.63;100.00
69630;BME280;56857;52.212;5.496;2022-12-11T08:20:37;101129.06;;;0.61;100.00
69630;BME280;56857;52.212;5.496;2022-12-11T08:23:03;101129.25;;;0.58;100.00
69630;BME280;56857;52.212;5.496;2022-12-11T08:25:29;101134.66;;;0.55;100.00
69630;BME280;56857;52.212;5.496;2022-12-11T08:27:54;101137.16;;;0.57;100.00
69630;BME280;56857;52.212;5.496;2022-12-11T08:30:19;101139.78;;;0.57;100.00
69630;BME280;56857;52.212;5.496;2022-12-11T08:32:45;101138.94;;;0.56;100.00
69630;BME280;56857;52.212;5.496;2022-12-11T08:35:10;101147.72;;;0.55;100.00
69630;BME280;56857;52.212;5.496;2022-12-11T08:37:35;101141.75;;;0.53;100.00
69630;BME280;56857;52.212;5.496;2022-12-11T08:40:01;101134.97;;;0.51;100.00
69630;BME280;56857;52.212;5.496;2022-12-11T08:42:26;101134.84;;;0.52;100.00
69630;BME280;56857;52.212;5.496;2022-12-11T08:44:51;101139.88;;;0.55;100.00
69630;BME280;56857;52.212;5.496;2022-12-11T08:47:17;101132.16;;;0.54;100.00
69630;BME280;56857;52.212;5.496;2022-12-11T08:49:42;101132.06;;;0.55;100.00
69630;BME280;56857;52.212;5.496;2022-12-11T08:52:08;101129.44;;;0.55;100.00
69630;BME280;56857;52.212;5.496;2022-12-11T08:54:33;101126.94;;;0.54;100.00
69630;BME280;56857;52.212;5.496;2022-12-11T08:57:00;101126.09;;;0.53;100.00
69630;BME280;56857;52.212;5.496;2022-12-11T08:59:25;101129.56;;;0.54;100.00
69630;BME280;56857;52.212;5.496;2022-12-11T09:01:51;101129.56;;;0.54;100.00
69630;BME280;56857;52.212;5.496;2022-12-11T09:04:16;101125.19;;;0.54;100.00
69630;BME280;56857;52.212;5.496;2022-12-11T09:06:41;101124.34;;;0.54;100.00
69630;BME280;56857;52.212;5.496;2022-12-11T09:09:07;101122.56;;;0.54;100.00
69630;BME280;56857;52.212;5.496;2022-12-11T09:11:34;101120.88;;;0.53;100.00
69630;BME280;56857;52.212;5.496;2022-12-11T09:14:00;101126.19;;;0.52;100.00
69630;BME280;56857;52.212;5.496;2022-12-11T09:16:27;101127.16;;;0.51;100.00
69630;BME280;56857;52.212;5.496;2022-12-11T09:18:56;101125.25;;;0.53;100.00
69630;BME280;56857;52.212;5.496;2022-12-11T09:21:29;101123.47;;;0.53;100.00
69630;BME280;56857;52.212;5.496;2022-12-11T09:23:58;101123.47;;;0.53;100.00
69630;BME280;56857;52.212;5.496;2022-12-11T09:26:24;101124.34;;;0.54;100.00
69630;BME280;56857;52.212;5.496;2022-12-11T09:28:50;101124.97;;;0.57;100.00
69630;BME280;56857;52.212;5.496;2022-12-11T09:31:20;101130.19;;;0.57;100.00
69630;BME280;56857;52.212;5.496;2022-12-11T09:33:46;101126.72;;;0.57;100.00
69630;BME280;56857;52.212;5.496;2022-12-11T09:36:11;101122.47;;;0.56;100.00
69630;BME280;56857;52.212;5.496;2022-12-11T09:38:37;101123.28;;;0.56;100.00
69630;BME280;56857;52.212;5.496;2022-12-11T09:41:32;101120.59;;;0.58;100.00
69630;BME280;56857;52.212;5.496;2022-12-11T09:44:18;101117.78;;;0.61;100.00
69630;BME280;56857;52.212;5.496;2022-12-11T09:46:47;101114.88;;;0.65;100.00
69630;BME280;56857;52.212;5.496;2022-12-11T09:49:40;101113.66;;;0.71;100.00
69630;BME280;56857;52.212;5.496;2022-12-11T09:52:17;101106.38;;;0.76;100.00
69630;BME280;56857;52.212;5.496;2022-12-11T09:54:49;101105.97;;;0.82;100.00
69630;BME280;56857;52.212;5.496;2022-12-11T10:08:30;101116.72;;;0.90;100.00
69630;BME280;56857;52.212;5.496;2022-12-11T10:16:53;101108.94;;;1.03;100.00
69630;BME280;56857;52.212;5.496;2022-12-11T10:19:26;101105.50;;;1.03;100.00
69630;BME280;56857;52.212;5.496;2022-12-11T10:21:53;101114.06;;;1.05;100.00
69630;BME280;56857;52.212;5.496;2022-12-11T10:24:30;101101.84;;;1.05;100.00
69630;BME280;56857;52.212;5.496;2022-12-11T10:27:11;101111.34;;;1.06;100.00
69630;BME280;56857;52.212;5.496;2022-12-11T10:29:38;101110.31;;;1.09;100.00
69630;BME280;56857;52.212;5.496;2022-12-11T10:32:03;101107.50;;;1.12;100.00
69630;BME280;56857;52.212;5.496;2022-12-11T10:34:36;101103.22;;;1.11;100.00
69630;BME280;56857;52.212;5.496;2022-12-11T10:37:04;101103.94;;;1.13;100.00
69630;BME280;56857;52.212;5.496;2022-12-11T10:39:29;101100.28;;;1.15;100.00
69630;BME280;56857;52.212;5.496;2022-12-11T10:41:55;101099.34;;;1.16;100.00
69630;BME280;56857;52.212;5.496;2022-12-11T10:44:26;101096.84;;;1.15;100.00
69630;BME280;56857;52.212;5.496;2022-12-11T10:47:14;101093.59;;;1.11;100.00
69630;BME280;56857;52.212;5.496;2022-12-11T10:49:51;101089.34;;;1.10;100.00
69630;BME280;56857;52.212;5.496;2022-12-11T10:52:23;101093.69;;;1.10;100.00
69630;BME280;56857;52.212;5.496;2022-12-11T10:55:01;101092.16;;;1.07;100.00
69630;BME280;56857;52.212;5.496;2022-12-11T10:57:29;101091.28;;;1.07;100.00
69630;BME280;56857;52.212;5.496;2022-12-11T10:59:55;101096.41;;;1.08;100.00
69630;BME280;56857;52.212;5.496;2022-12-11T11:02:30;101091.28;;;1.07;100.00
69630;BME280;56857;52.212;5.496;2022-12-11T11:04:58;101091.19;;;1.08;100.00
69630;BME280;56857;52.212;5.496;2022-12-11T11:07:29;101084.94;;;1.11;100.00
69630;BME280;56857;52.212;5.496;2022-12-11T11:12:29;101086.50;;;1.13;100.00
69630;BME280;56857;52.212;5.496;2022-12-11T11:14:59;101089.84;;;1.15;100.00
69630;BME280;56857;52.212;5.496;2022-12-11T11:17:25;101079.31;;;1.17;100.00
69630;BME280;56857;52.212;5.496;2022-12-11T11:19:50;101077.53;;;1.18;100.00
69630;BME280;56857;52.212;5.496;2022-12-11T11:22:18;101075.00;;;1.16;100.00
69630;BME280;56857;52.212;5.496;2022-12-11T11:29:37;101069.69;;;1.18;100.00
69630;BME280;56857;52.212;5.496;2022-12-11T11:32:17;101074.81;;;1.19;100.00
69630;BME280;56857;52.212;5.496;2022-12-11T11:34:44;101064.28;;;1.21;100.00
69630;BME280;56857;52.212;5.496;2022-12-11T11:37:23;101055.59;;;1.20;100.00
69630;BME280;56857;52.212;5.496;2022-12-11T11:39:51;101057.34;;;1.20;100.00
69630;BME280;56857;52.212;5.496;2022-12-11T11:42:27;101059.13;;;1.19;100.00
69630;BME280;56857;52.212;5.496;2022-12-11T11:45:08;101056.53;;;1.19;100.00
69630;BME280;56857;52.212;5.496;2022-12-11T11:47:44;101059.97;;;1.20;100.00
69630;BME280;56857;52.212;5.496;2022-12-11T11:50:16;101053.72;;;1.22;100.00
69630;BME280;56857;52.212;5.496;2022-12-11T11:52:47;101055.41;;;1.23;100.00
69630;BME280;56857;52.212;5.496;2022-12-11T11:55:20;101051.72;;;1.26;100.00
69630;BME280;56857;52.212;5.496;2022-12-11T11:57:57;101047.34;;;1.26;100.00
69630;BME280;56857;52.212;5.496;2022-12-11T12:00:27;101044.63;;;1.28;100.00
69630;BME280;56857;52.212;5.496;2022-12-11T12:02:56;101046.28;;;1.29;100.00
69630;BME280;56857;52.212;5.496;2022-12-11T12:08:11;101044.53;;;1.29;100.00
69630;BME280;56857;52.212;5.496;2022-12-11T12:13:08;101046.91;;;1.32;100.00
69630;BME280;56857;52.212;5.496;2022-12-11T12:15:50;101040.84;;;1.32;100.00
69630;BME280;56857;52.212;5.496;2022-12-11T12:18:40;101037.94;;;1.36;100.00
69630;BME280;56857;52.212;5.496;2022-12-11T12:21:23;101036.69;;;1.42;100.00
69630;BME280;56857;52.212;5.496;2022-12-11T12:24:24;101034.78;;;1.44;100.00
69630;BME280;56857;52.212;5.496;2022-12-11T12:40:31;101040.44;;;1.51;100.00
69630;BME280;56857;52.212;5.496;2022-12-11T12:48:39;101033.34;;;1.53;100.00
69630;BME280;56857;52.212;5.496;2022-12-11T12:51:05;101034.28;;;1.52;100.00
69630;BME280;56857;52.212;5.496;2022-12-11T12:53:32;101031.47;;;1.55;100.00
69630;BME280;56857;52.212;5.496;2022-12-11T12:55:59;101031.25;;;1.58;100.00
69630;BME280;56857;52.212;5.496;2022-12-11T12:58:29;101024.25;;;1.58;100.00
69630;BME280;56857;52.212;5.496;2022-12-11T13:01:06;101027.06;;;1.55;100.00
69630;BME280;56857;52.212;5.496;2022-12-11T13:03:36;101034.78;;;1.57;100.00
69630;BME280;56857;52.212;5.496;2022-12-11T13:06:13;101036.56;;;1.56;100.00
69630;BME280;56857;52.212;5.496;2022-12-11T13:08:49;101038.34;;;1.56;100.00
69630;BME280;56857;52.212;5.496;2022-12-11T13:11:18;101038.34;;;1.56;100.00
69630;BME280;56857;52.212;5.496;2022-12-11T13:14:35;101029.78;;;1.54;100.00
69630;BME280;56857;52.212;5.496;2022-12-11T13:16:40;101033.34;;;1.53;100.00
69630;BME280;56857;52.212;5.496;2022-12-11T13:27:36;101031.66;;;1.52;100.00
69630;BME280;56857;52.212;5.496;2022-12-11T13:32:41;101040.97;;;1.56;100.00
69630;BME280;56857;52.212;5.496;2022-12-11T13:35:17;101044.53;;;1.55;100.00
69630;BME280;56857;52.212;5.496;2022-12-11T13:37:43;101050.47;;;1.57;100.00
69630;BME280;56857;52.212;5.496;2022-12-11T13:40:23;101034.91;;;1.55;100.00
69630;BME280;56857;52.212;5.496;2022-12-11T13:43:32;101033.22;;;1.54;100.00
69630;BME280;56857;52.212;5.496;2022-12-11T13:45:49;101034.69;;;1.58;100.00
69630;BME280;56857;52.212;5.496;2022-12-11T13:48:22;101038.88;;;1.61;100.00
69630;BME280;56857;52.212;5.496;2022-12-11T13:50:50;101044.94;;;1.61;100.00
69630;BME280;56857;52.212;5.496;2022-12-11T13:53:18;101039.78;;;1.60;100.00
69630;BME280;56857;52.212;5.496;2022-12-11T13:55:43;101041.69;;;1.58;100.00
69630;BME280;56857;52.212;5.496;2022-12-11T13:58:19;101036.56;;;1.56;100.00
69630;BME280;56857;52.212;5.496;2022-12-11T14:00:55;101042.75;;;1.55;100.00
69630;BME280;56857;52.212;5.496;2022-12-11T14:03:25;101043.78;;;1.53;100.00
69630;BME280;56857;52.212;5.496;2022-12-11T14:05:51;101042.22;;;1.50;100.00
69630;BME280;56857;52.212;5.496;2022-12-11T14:08:21;101038.97;;;1.47;100.00
69630;BME280;56857;52.212;5.496;2022-12-11T14:10:52;101045.88;;;1.48;100.00
69630;BME280;56857;52.212;5.496;2022-12-11T14:13:24;101046.81;;;1.47;100.00
69630;BME280;56857;52.212;5.496;2022-12-11T14:15:51;101051.00;;;1.49;100.00